createdAt,value
2019-04-10T00:00:44.378Z,100585.23
2019-04-10T00:04:49.410Z,100587.92
2019-04-10T00:08:52.817Z,100590.92
2019-04-10T00:12:56.171Z,100591.86
2019-04-10T00:16:58.843Z,100598.58
2019-04-10T00:21:01.288Z,100600.87
2019-04-10T00:25:04.302Z,100611.88
2019-04-10T00:29:07.756Z,100614.88
2019-04-10T00:33:10.648Z,100607.95
2019-04-10T00:37:22.954Z,100611.59
2019-04-10T00:41:17.425Z,100615.64
2019-04-10T00:45:20.104Z,100617.81
2019-04-10T00:49:23.718Z,100623.58
2019-04-10T00:53:27.453Z,100627.96
2019-04-10T00:57:29.886Z,100624.60
2019-04-10T01:01:32.409Z,100624.94
2019-04-10T01:05:35.358Z,100637.29
2019-04-10T01:09:38.206Z,100635.61
2019-04-10T01:13:41.103Z,100644.36
2019-04-10T01:17:44.800Z,100643.63
2019-04-10T01:21:47.489Z,100647.22
2019-04-10T01:25:50.590Z,100647.75
2019-04-10T01:29:54.062Z,100652.70
2019-04-10T01:33:56.914Z,100651.27
2019-04-10T01:38:02.350Z,100652.24
2019-04-10T01:42:04.035Z,100655.80
2019-04-10T01:46:06.656Z,100655.36
2019-04-10T01:50:10.474Z,100670.17
2019-04-10T01:54:13.090Z,100662.25
2019-04-10T01:58:21.088Z,100671.03
2019-04-10T02:02:37.065Z,100668.01
2019-04-10T02:06:39.955Z,100678.71
2019-04-10T02:10:42.890Z,100669.47
2019-04-10T02:14:46.824Z,100679.38
2019-04-10T02:18:49.970Z,100678.85
2019-04-10T02:22:53.867Z,100689.88
2019-04-10T02:26:56.709Z,100678.96
2019-04-10T02:31:00.684Z,100683.22
2019-04-10T02:35:04.052Z,100684.53
2019-04-10T02:39:21.836Z,100692.69
2019-04-10T02:43:14.068Z,100690.48
2019-04-10T02:47:17.514Z,100692.23
2019-04-10T02:51:23.022Z,100693.99
2019-04-10T02:55:27.228Z,100692.27
2019-04-10T02:59:31.054Z,100694.89
2019-04-10T03:03:34.286Z,100695.83
2019-04-10T03:07:37.018Z,100698.06
2019-04-10T03:11:41.972Z,100697.17
2019-04-10T03:15:45.084Z,100705.47
2019-04-10T03:19:47.826Z,100708.91
2019-04-10T03:23:50.299Z,100711.97
2019-04-10T03:27:53.125Z,100711.91
2019-04-10T03:31:59.289Z,100715.45
2019-04-10T03:36:01.598Z,100719.41
2019-04-10T03:40:04.962Z,100730.78
2019-04-10T03:44:08.116Z,100730.33
2019-04-10T03:48:11.700Z,100728.05
2019-04-10T03:52:14.629Z,100727.67
2019-04-10T03:56:17.981Z,100723.67
2019-04-10T04:00:21.105Z,100732.80
2019-04-10T04:04:23.806Z,100739.72
2019-04-10T04:08:26.378Z,100741.10
2019-04-10T04:12:28.860Z,100746.67
2019-04-10T04:16:31.847Z,100750.91
2019-04-10T04:20:35.017Z,100758.58
2019-04-10T04:24:39.938Z,100754.83
2019-04-10T04:28:41.863Z,100762.40
2019-04-10T04:32:44.592Z,100762.16
2019-04-10T04:36:48.930Z,100767.81
2019-04-10T04:40:51.873Z,100776.34
2019-04-10T04:44:56.259Z,100772.98
2019-04-10T04:49:00.043Z,100775.80
2019-04-10T04:53:02.782Z,100783.98
2019-04-10T04:57:06.550Z,100780.23
2019-04-10T05:01:09.166Z,100786.27
2019-04-10T05:05:11.862Z,100788.88
2019-04-10T05:09:25.952Z,100787.80
2019-04-10T05:13:22.244Z,100792.48
2019-04-10T05:17:28.773Z,100790.17
2019-04-10T05:21:31.387Z,100790.77
2019-04-10T05:25:34.580Z,100796.99
2019-04-10T05:29:37.411Z,100802.42
2019-04-10T05:33:40.773Z,100801.00
2019-04-10T05:37:43.544Z,100806.58
2019-04-10T05:41:47.027Z,100806.92
2019-04-10T05:45:50.677Z,100823.12
2019-04-10T05:49:53.487Z,100824.54
2019-04-10T05:53:56.199Z,100813.73
2019-04-10T05:57:59.433Z,100826.55
2019-04-10T06:02:01.667Z,100833.08
2019-04-10T06:06:04.305Z,100832.45
2019-04-10T06:10:10.326Z,100837.47
2019-04-10T06:14:12.171Z,100840.41
2019-04-10T06:18:15.285Z,100845.50
2019-04-10T06:22:18.720Z,100857.28
2019-04-10T06:26:21.837Z,100850.19
2019-04-10T06:30:24.404Z,100850.91
2019-04-10T06:34:26.909Z,100866.06
2019-04-10T06:38:29.326Z,100863.11
2019-04-10T06:42:44.361Z,100865.73
2019-04-10T06:46:37.956Z,100863.02
2019-04-10T06:50:41.245Z,100874.89
2019-04-10T06:54:44.857Z,100878.13
2019-04-10T06:58:47.792Z,100874.41
2019-04-10T07:02:52.591Z,100868.58
2019-04-10T07:07:00.728Z,100871.36
2019-04-10T07:11:06.016Z,100875.22
2019-04-10T07:15:04.210Z,100875.17
2019-04-10T07:19:11.629Z,100880.47
2019-04-10T07:23:18.275Z,100881.51
2019-04-10T07:27:19.475Z,100893.94
2019-04-10T07:31:22.058Z,100889.52
2019-04-10T07:35:25.756Z,100897.52
2019-04-10T07:39:31.025Z,100903.30
2019-04-10T07:43:32.631Z,100901.34
2019-04-10T07:47:35.649Z,100902.74
2019-04-10T07:51:38.906Z,100907.95
2019-04-10T07:55:42.117Z,100915.94
2019-04-10T07:59:45.414Z,100919.56
2019-04-10T08:03:47.934Z,100914.39
2019-04-10T08:07:53.390Z,100915.31
2019-04-10T08:11:56.734Z,100922.03
2019-04-10T08:15:59.311Z,100919.12
2019-04-10T08:20:02.237Z,100924.55
2019-04-10T08:24:05.214Z,100926.19
2019-04-10T08:28:07.754Z,100938.19
2019-04-10T08:32:10.092Z,100937.25
2019-04-10T08:36:12.996Z,100939.16
2019-04-10T08:40:15.971Z,100946.95
2019-04-10T08:44:19.712Z,100948.90
2019-04-10T08:48:27.534Z,100936.23
2019-04-10T08:52:30.531Z,100949.59
2019-04-10T08:56:33.364Z,100951.57
2019-04-10T09:00:36.506Z,100958.02
2019-04-10T09:04:39.333Z,100965.11
2019-04-10T09:08:43.587Z,100961.63
2019-04-10T09:12:47.256Z,100959.88
2019-04-10T09:16:51.006Z,100963.67
2019-04-10T09:20:53.746Z,100957.52
2019-04-10T09:24:58.449Z,100959.21
2019-04-10T09:29:02.562Z,100970.66
2019-04-10T09:33:15.694Z,100972.75
2019-04-10T09:37:10.881Z,100968.61
2019-04-10T09:41:14.181Z,100979.70
2019-04-10T09:45:17.774Z,100981.17
2019-04-10T09:49:31.647Z,100978.05
2019-04-10T09:53:29.385Z,100977.31
2019-04-10T09:57:34.763Z,100992.52
2019-04-10T10:01:37.976Z,100988.45
2019-04-10T10:05:40.492Z,100993.31
2019-04-10T10:09:43.196Z,100978.86
2019-04-10T10:13:45.935Z,100998.92
2019-04-10T10:17:48.838Z,100997.45
2019-04-10T10:21:52.552Z,101004.75
2019-04-10T10:25:55.957Z,101003.48
2019-04-10T10:29:58.575Z,101008.46
2019-04-10T10:34:01.898Z,101012.98
2019-04-10T10:38:05.424Z,101020.25
2019-04-10T10:42:08.162Z,101029.49
2019-04-10T10:46:11.414Z,101023.81
2019-04-10T10:50:15.167Z,101045.12
2019-04-10T10:54:18.868Z,101039.71
2019-04-10T10:58:21.823Z,101052.11
2019-04-10T11:02:25.468Z,101058.75
2019-04-10T11:06:29.081Z,101046.67
2019-04-10T11:10:31.631Z,101059.50
2019-04-10T11:14:35.334Z,101076.30
2019-04-10T11:18:38.254Z,101075.45
2019-04-10T11:22:42.411Z,101073.28
2019-04-10T11:26:47.101Z,101083.05
2019-04-10T11:30:53.490Z,101093.15
2019-04-10T11:34:56.889Z,101093.73
2019-04-10T11:39:10.552Z,101100.80
2019-04-10T11:43:07.557Z,101106.92
2019-04-10T11:47:12.454Z,101099.31
2019-04-10T11:51:16.497Z,101099.77
2019-04-10T11:55:21.175Z,101099.53
2019-04-10T11:59:24.239Z,101109.50
2019-04-10T12:03:27.184Z,101106.64
2019-04-10T12:08:06.056Z,101114.05
2019-04-10T12:11:35.138Z,101103.30
2019-04-10T12:15:38.639Z,101122.61
2019-04-10T12:19:42.434Z,101121.39
2019-04-10T12:23:45.287Z,101121.45
2019-04-10T12:27:47.851Z,101121.78
2019-04-10T12:31:52.445Z,101129.35
2019-04-10T12:35:56.185Z,101134.63
2019-04-10T12:39:58.872Z,101127.49
2019-04-10T12:44:01.294Z,101135.59
2019-04-10T12:48:04.268Z,101137.31
2019-04-10T12:52:07.855Z,101130.59
2019-04-10T12:56:10.719Z,101144.16
2019-04-10T13:00:18.603Z,101147.84
2019-04-10T13:04:22.348Z,101151.86
2019-04-10T13:08:35.165Z,101161.98
2019-04-10T13:12:29.290Z,101169.07
2019-04-10T13:16:32.158Z,101169.95
2019-04-10T13:20:34.822Z,101172.48
2019-04-10T13:24:37.599Z,101189.78
2019-04-10T13:32:42.419Z,101182.98
2019-04-10T13:36:45.854Z,101195.62
2019-04-10T13:40:48.599Z,101188.26
2019-04-10T13:44:50.965Z,101198.18
2019-04-10T13:48:53.623Z,101198.11
2019-04-10T13:52:57.431Z,101197.28
2019-04-10T13:57:00.171Z,101201.52
2019-04-10T14:01:03.102Z,101210.80
2019-04-10T14:05:07.496Z,101216.56
2019-04-10T14:09:31.154Z,101219.38
2019-04-10T14:13:24.112Z,101232.11
2019-04-10T14:17:27.769Z,101223.48
2019-04-10T14:21:31.152Z,101231.50
2019-04-10T14:25:47.739Z,101243.06
2019-04-10T14:29:51.042Z,101231.28
2019-04-10T14:33:53.785Z,101235.33
2019-04-10T14:37:56.877Z,101248.03
2019-04-10T14:42:00.142Z,101252.89
2019-04-10T14:46:03.443Z,101246.78
2019-04-10T14:50:07.549Z,101247.04
2019-04-10T14:54:11.320Z,101246.27
2019-04-10T14:58:22.808Z,101243.84
2019-04-10T15:02:19.506Z,101245.61
2019-04-10T15:06:23.424Z,101248.19
2019-04-10T15:10:26.361Z,101256.12
2019-04-10T15:14:29.878Z,101255.30
2019-04-10T15:18:33.266Z,101265.91
2019-04-10T15:22:35.981Z,101264.59
2019-04-10T15:26:40.401Z,101269.43
2019-04-10T15:30:43.144Z,101269.94
2019-04-10T15:34:46.081Z,101270.36
2019-04-10T15:38:48.712Z,101272.56
2019-04-10T15:42:52.433Z,101279.73
2019-04-10T15:47:07.334Z,101280.47
2019-04-10T15:51:00.627Z,101279.73
2019-04-10T15:55:03.690Z,101289.62
2019-04-10T15:59:06.118Z,101295.19
2019-04-10T16:03:09.193Z,101301.42
2019-04-10T16:07:14.203Z,101308.98
2019-04-10T16:11:34.067Z,101302.52
2019-04-10T16:15:40.745Z,101301.45
2019-04-10T16:19:54.337Z,101307.24
2019-04-10T16:24:04.549Z,101312.91
2019-04-10T16:28:08.312Z,101313.98
2019-04-10T16:32:12.636Z,101312.77
2019-04-10T16:36:15.574Z,101313.12
2019-04-10T16:40:18.551Z,101312.67
2019-04-10T16:44:21.965Z,101310.85
2019-04-10T16:48:26.286Z,101319.27
2019-04-10T16:52:29.237Z,101325.44
2019-04-10T16:56:31.897Z,101330.41
2019-04-10T17:00:35.455Z,101332.64
2019-04-10T17:04:39.553Z,101338.81
2019-04-10T17:08:42.218Z,101339.77
2019-04-10T17:12:44.640Z,101345.91
2019-04-10T17:16:48.115Z,101346.41
2019-04-10T17:20:51.015Z,101358.66
2019-04-10T17:24:54.128Z,101359.20
2019-04-10T17:28:56.773Z,101365.75
2019-04-10T17:33:00.555Z,101370.91
2019-04-10T17:37:03.520Z,101374.86
2019-04-10T17:41:07.177Z,101383.21
2019-04-10T17:45:10.561Z,101385.08
2019-04-10T17:49:15.011Z,101379.98
2019-04-10T17:53:18.502Z,101391.78
2019-04-10T17:57:33.714Z,101396.69
2019-04-10T18:01:27.473Z,101405.50
2019-04-10T18:05:30.878Z,101404.63
2019-04-10T18:09:33.095Z,101404.22
2019-04-10T18:13:36.394Z,101411.19
2019-04-10T18:17:38.854Z,101420.80
2019-04-10T18:21:44.161Z,101418.69
2019-04-10T18:25:47.204Z,101420.00
2019-04-10T18:29:49.891Z,101425.60
2019-04-10T18:33:53.095Z,101428.33
2019-04-10T18:37:55.908Z,101428.89
2019-04-10T18:41:59.793Z,101434.23
2019-04-10T18:46:10.786Z,101435.60
2019-04-10T18:50:07.911Z,101444.30
2019-04-10T18:54:12.263Z,101444.72
2019-04-10T18:58:19.173Z,101442.96
2019-04-10T19:02:41.196Z,101443.77
2019-04-10T19:06:53.671Z,101445.52
2019-04-10T19:11:10.874Z,101449.88
2019-04-10T19:15:00.755Z,101456.06
2019-04-10T19:19:03.863Z,101455.28
2019-04-10T19:23:06.838Z,101454.73
2019-04-10T19:27:11.773Z,101460.64
2019-04-10T19:31:19.500Z,101463.39
2019-04-10T19:35:20.061Z,101466.63
2019-04-10T19:39:24.452Z,101466.04
2019-04-10T19:43:28.983Z,101465.72
2019-04-10T19:47:32.500Z,101465.59
2019-04-10T19:51:36.394Z,101469.84
2019-04-10T19:55:40.054Z,101478.23
2019-04-10T19:59:43.962Z,101482.78
2019-04-10T20:03:48.019Z,101483.78
2019-04-10T20:07:51.379Z,101483.84
2019-04-10T20:11:56.132Z,101484.98
2019-04-10T20:15:58.630Z,101485.61
2019-04-10T20:20:00.915Z,101484.48
2019-04-10T20:24:03.484Z,101491.83
2019-04-10T20:28:07.221Z,101490.14
2019-04-10T20:32:11.116Z,101497.75
2019-04-10T20:36:15.149Z,101499.36
2019-04-10T20:40:18.055Z,101496.69
2019-04-10T20:44:22.694Z,101502.05
2019-04-10T20:48:28.685Z,101499.79
2019-04-10T20:52:32.444Z,101514.12
2019-04-10T20:56:35.005Z,101511.25
2019-04-10T21:00:41.233Z,101511.46
2019-04-10T21:04:54.730Z,101510.77
2019-04-10T21:08:50.343Z,101517.31
2019-04-10T21:12:53.146Z,101523.22
2019-04-10T21:16:56.128Z,101515.13
2019-04-10T21:20:59.580Z,101518.75
2019-04-10T21:25:02.839Z,101526.66
2019-04-10T21:29:09.462Z,101528.95
2019-04-10T21:33:43.008Z,101536.16
2019-04-10T21:37:46.588Z,101539.42
2019-04-10T21:41:49.208Z,101540.79
2019-04-10T21:45:51.848Z,101538.34
2019-04-10T21:49:54.733Z,101539.87
2019-04-10T21:53:57.926Z,101546.29
2019-04-10T21:58:00.624Z,101548.03
2019-04-10T22:02:03.217Z,101546.56
2019-04-10T22:06:28.769Z,101545.52
2019-04-10T22:10:36.300Z,101542.83
2019-04-10T22:14:39.637Z,101545.87
2019-04-10T22:18:42.474Z,101544.52
2019-04-10T22:22:45.045Z,101546.33
2019-04-10T22:26:47.342Z,101545.83
2019-04-10T22:30:50.942Z,101547.50
2019-04-10T22:34:53.244Z,101539.23
2019-04-10T22:38:55.565Z,101542.77
2019-04-10T22:42:57.819Z,101536.22
2019-04-10T22:47:01.085Z,101536.61
2019-04-10T22:51:03.509Z,101540.52
2019-04-10T22:55:07.142Z,101541.78
2019-04-10T22:59:10.174Z,101536.17
2019-04-10T23:03:13.494Z,101538.09
2019-04-10T23:07:15.981Z,101538.27
2019-04-10T23:11:30.416Z,101545.80
2019-04-10T23:15:23.134Z,101539.81
2019-04-10T23:19:25.909Z,101540.84
2019-04-10T23:23:28.369Z,101540.58
2019-04-10T23:27:30.822Z,101548.62
2019-04-10T23:31:34.021Z,101543.56
2019-04-10T23:35:37.804Z,101537.63
2019-04-10T23:39:40.653Z,101546.41
2019-04-10T23:43:44.024Z,101553.92
2019-04-10T23:47:46.580Z,101553.19
2019-04-10T23:51:49.575Z,101558.07
2019-04-10T23:55:52.436Z,101561.20
2019-04-10T23:59:55.223Z,101570.52
